Time;durP1;ratioP1;P1;durP2;ratioP2;P2;SDS_P1;SDS_P2;PMS_P1;PMS_P2;Temp;Humidity;BMP_temperature;BMP_pressure;BME280_temperature;BME280_humidity;BME280_pressure;Samples;Min_cycle;Max_cycle;Signal;HPM_P1;HPM_P2
2023/05/10 00:01:21;;;;;;;13.27;11.60;;;;;;;13.72;100.00;100712.13;5009223;28;20042;-82
2023/05/10 00:03:48;;;;;;;13.10;11.02;;;;;;;13.72;100.00;100714.78;4990169;28;20065;-82
2023/05/10 00:06:15;;;;;;;12.18;10.88;;;;;;;13.72;100.00;100710.34;5007453;28;20042;-82
2023/05/10 00:08:43;;;;;;;15.05;12.00;;;;;;;13.72;100.00;100712.13;4967363;28;20440;-82
2023/05/10 00:11:10;;;;;;;14.70;12.50;;;;;;;13.72;100.00;100709.50;5030128;28;20052;-82
2023/05/10 00:13:38;;;;;;;15.77;12.43;;;;;;;13.70;100.00;100709.50;5003290;28;20418;-82
2023/05/10 00:16:07;;;;;;;14.65;12.52;;;;;;;13.70;100.00;100704.19;4999537;28;20072;-81
2023/05/10 00:18:35;;;;;;;15.50;11.95;;;;;;;13.70;100.00;100705.97;5030604;28;20045;-81
2023/05/10 00:21:02;;;;;;;12.95;11.52;;;;;;;13.67;100.00;100703.34;5014657;28;20046;-82
2023/05/10 00:23:30;;;;;;;16.00;12.23;;;;;;;13.68;100.00;100702.47;4993956;28;20057;-81
2023/05/10 00:25:57;;;;;;;12.93;10.77;;;;;;;13.68;100.00;100702.47;4980932;28;20105;-83
2023/05/10 00:28:26;;;;;;;12.90;11.48;;;;;;;13.68;100.00;100702.47;4996311;28;20042;-81
2023/05/10 00:30:54;;;;;;;14.35;12.05;;;;;;;13.67;100.00;100701.63;5013307;28;20060;-81
2023/05/10 00:33:22;;;;;;;15.07;12.07;;;;;;;13.67;100.00;100698.06;4991060;28;20060;-81
2023/05/10 00:35:49;;;;;;;16.77;12.30;;;;;;;13.65;100.00;100698.97;4996167;28;20056;-80
2023/05/10 00:38:17;;;;;;;16.08;11.98;;;;;;;13.62;100.00;100698.13;4996263;28;20045;-81
2023/05/10 00:40:44;;;;;;;11.02;9.82;;;;;;;13.54;100.00;100706.16;4996059;28;20404;-81
2023/05/10 00:43:20;;;;;;;9.50;8.27;;;;;;;13.43;100.00;100703.63;4984217;28;20057;-81
2023/05/10 00:45:48;;;;;;;11.40;10.30;;;;;;;13.30;100.00;100702.00;5007547;28;20056;-82
2023/05/10 00:48:16;;;;;;;10.23;9.30;;;;;;;13.25;100.00;100693.19;5022438;28;20056;-81
2023/05/10 00:50:43;;;;;;;11.05;9.95;;;;;;;13.19;100.00;100702.06;5008746;28;20046;-81
2023/05/10 00:53:11;;;;;;;11.85;10.75;;;;;;;13.13;100.00;100695.97;4988496;28;20058;-81
2023/05/10 00:55:42;;;;;;;13.38;11.05;;;;;;;13.05;100.00;100696.06;4965003;28;20056;-81
2023/05/10 00:58:09;;;;;;;13.15;11.85;;;;;;;12.96;100.00;100709.38;5005194;28;20384;-80
2023/05/10 01:00:38;;;;;;;12.10;11.00;;;;;;;12.90;100.00;100702.34;4993604;28;20514;-82
2023/05/10 01:03:07;;;;;;;15.38;10.52;;;;;;;12.83;100.00;100701.53;4988191;28;20057;-81
2023/05/10 01:05:34;;;;;;;14.30;11.30;;;;;;;12.77;100.00;100700.72;4996961;28;20054;-81
2023/05/10 01:08:02;;;;;;;12.65;11.32;;;;;;;12.72;100.00;100703.41;4979351;28;20056;-81
2023/05/10 01:10:30;;;;;;;13.15;11.68;;;;;;;12.68;100.00;100699.00;4951410;28;20064;-82
2023/05/10 01:13:02;;;;;;;15.25;12.32;;;;;;;12.66;100.00;100703.44;4996448;28;20056;-81
2023/05/10 01:15:31;;;;;;;16.85;12.93;;;;;;;12.64;100.00;100697.28;4991753;28;20056;-81
2023/05/10 01:18:01;;;;;;;14.15;12.65;;;;;;;12.63;100.00;100704.34;4979358;28;20057;-81
2023/05/10 01:20:36;;;;;;;18.27;12.93;;;;;;;12.64;100.00;100700.78;4988736;28;20060;-82
2023/05/10 01:23:22;;;;;;;17.02;13.18;;;;;;;12.66;100.00;100698.13;5011054;28;20056;-81
2023/05/10 01:26:28;;;;;;;17.50;13.90;;;;;;;12.65;100.00;100696.41;4964764;28;20042;-81
2023/05/10 01:29:17;;;;;;;12.45;11.15;;;;;;;12.65;100.00;100697.28;5002766;28;20046;-81
2023/05/10 01:32:03;;;;;;;14.93;12.52;;;;;;;12.64;100.00;100700.78;4996664;28;20049;-81
2023/05/10 01:34:59;;;;;;;15.25;12.70;;;;;;;12.64;100.00;100699.91;5001157;28;20068;-82
2023/05/10 01:37:38;;;;;;;17.80;13.20;;;;;;;12.65;100.00;100701.69;5025741;28;20045;-81
2023/05/10 01:40:50;;;;;;;12.98;11.18;;;;;;;12.60;100.00;100703.47;5000669;28;20042;-81
2023/05/10 01:43:24;;;;;;;12.30;10.82;;;;;;;12.58;100.00;100703.50;4988119;28;20061;-82
2023/05/10 01:46:10;;;;;;;14.98;12.05;;;;;;;12.58;100.00;100702.63;5001769;28;20053;-81
2023/05/10 01:48:46;;;;;;;17.58;11.20;;;;;;;12.57;100.00;100703.50;4995754;28;20050;-80
2023/05/10 01:51:22;;;;;;;14.93;11.38;;;;;;;12.56;100.00;100707.03;4982165;28;20045;-81
2023/05/10 01:53:59;;;;;;;14.55;11.40;;;;;;;12.54;100.00;100700.91;5007666;28;20050;-83
2023/05/10 01:56:31;;;;;;;11.43;9.38;;;;;;;12.52;100.00;100700.03;5008653;28;20045;-80
2023/05/10 01:59:08;;;;;;;14.45;11.20;;;;;;;12.48;100.00;100702.69;4966619;28;20511;-80
2023/05/10 02:01:37;;;;;;;12.93;10.68;;;;;;;12.49;100.00;100703.56;5042576;28;20041;-83
2023/05/10 02:04:09;;;;;;;10.60;9.50;;;;;;;12.49;100.00;100703.56;5008072;28;20064;-83
2023/05/10 02:06:39;;;;;;;12.52;10.60;;;;;;;12.51;100.00;100700.91;5004799;28;20053;-82
2023/05/10 02:09:08;;;;;;;15.20;11.10;;;;;;;12.52;100.00;100694.75;4995314;28;20054;-82
2023/05/10 02:11:38;;;;;;;12.20;10.00;;;;;;;12.51;100.00;100692.97;4994802;28;20049;-82
2023/05/10 02:14:11;;;;;;;11.43;9.90;;;;;;;12.45;100.00;100694.75;4977150;28;20383;-82
2023/05/10 02:16:40;;;;;;;10.75;9.65;;;;;;;12.42;100.00;100697.44;5008651;28;20052;-83
2023/05/10 02:19:09;;;;;;;11.75;10.30;;;;;;;12.40;100.00;100698.31;4962739;28;20494;-82
2023/05/10 02:21:39;;;;;;;14.35;10.60;;;;;;;12.36;100.00;100696.59;4978682;28;20051;-82
2023/05/10 02:24:09;;;;;;;12.57;10.20;;;;;;;12.35;100.00;100700.16;4997501;28;20049;-82
2023/05/10 02:26:39;;;;;;;14.18;10.30;;;;;;;12.31;100.00;100704.56;4989241;28;20058;-81
2023/05/10 02:29:08;;;;;;;9.77;8.77;;;;;;;12.32;100.00;100706.31;4961584;28;20045;-83
2023/05/10 02:31:38;;;;;;;10.38;9.38;;;;;;;12.31;100.00;100707.22;5003159;28;20157;-83
2023/05/10 02:34:10;;;;;;;11.60;9.60;;;;;;;12.31;100.00;100707.22;4989016;28;20427;-83
2023/05/10 02:36:42;;;;;;;10.27;9.27;;;;;;;12.29;100.00;100709.84;4997018;28;20069;-83
2023/05/10 02:39:13;;;;;;;10.45;9.30;;;;;;;12.24;100.00;100711.63;4973407;28;20053;-82
2023/05/10 02:41:42;;;;;;;12.18;9.43;;;;;;;12.22;100.00;100705.50;5005952;28;20033;-82
2023/05/10 02:44:11;;;;;;;12.77;10.60;;;;;;;12.19;100.00;100704.63;4956272;28;20057;-83
2023/05/10 02:46:40;;;;;;;10.40;9.27;;;;;;;12.17;100.00;100704.63;4987565;28;20061;-82
2023/05/10 02:49:08;;;;;;;11.80;9.80;;;;;;;12.16;100.00;100708.16;4986351;28;20046;-82
2023/05/10 02:51:43;;;;;;;14.02;10.02;;;;;;;12.14;100.00;100702.03;5003039;28;20041;-82
2023/05/10 02:54:17;;;;;;;12.75;9.98;;;;;;;12.14;100.00;100698.50;4998277;28;20053;-82
2023/05/10 02:56:50;;;;;;;13.23;10.95;;;;;;;12.12;100.00;100697.63;5004701;28;20065;-82
2023/05/10 02:59:18;;;;;;;13.02;10.85;;;;;;;12.08;100.00;100692.38;5004897;28;20058;-82
2023/05/10 03:01:45;;;;;;;13.40;10.93;;;;;;;12.08;100.00;100694.13;4974594;28;20150;-82
2023/05/10 03:04:13;;;;;;;11.57;10.02;;;;;;;12.08;100.00;100699.41;4983884;28;20900;-83
2023/05/10 03:06:41;;;;;;;11.73;9.77;;;;;;;12.09;100.00;100696.75;4986452;28;20045;-82
2023/05/10 03:09:10;;;;;;;12.70;10.57;;;;;;;12.11;100.00;100703.81;4997988;28;20895;-82
2023/05/10 03:11:53;;;;;;;11.18;9.90;;;;;;;12.12;100.00;100692.34;4993424;28;20050;-83
2023/05/10 03:15:01;;;;;;;18.67;11.45;;;;;;;12.14;100.00;100690.59;5002562;28;20686;-83
2023/05/10 03:17:49;;;;;;;15.45;10.85;;;;;;;12.15;100.00;100693.19;5007065;28;20057;-83
2023/05/10 03:20:25;;;;;;;12.18;10.20;;;;;;;12.15;100.00;100698.47;5007128;28;20050;-82
2023/05/10 03:23:00;;;;;;;16.00;10.82;;;;;;;12.14;100.00;100704.66;5004148;28;20183;-82
2023/05/10 03:25:31;;;;;;;13.98;10.70;;;;;;;12.15;100.00;100698.47;5011136;28;20061;-82
2023/05/10 03:28:01;;;;;;;13.88;10.60;;;;;;;12.17;100.00;100706.41;5009851;28;20041;-82
2023/05/10 03:30:33;;;;;;;13.65;11.43;;;;;;;12.16;100.00;100699.38;5005973;28;20049;-83
2023/05/10 03:33:06;;;;;;;11.43;10.23;;;;;;;12.14;100.00;100704.66;4956932;28;20046;-82
2023/05/10 03:35:38;;;;;;;11.48;10.00;;;;;;;12.13;100.00;100705.53;4996596;28;20053;-83
2023/05/10 03:38:08;;;;;;;13.25;11.00;;;;;;;12.12;100.00;100703.78;5000171;28;20503;-83
2023/05/10 03:40:35;;;;;;;16.35;11.77;;;;;;;12.12;100.00;100705.53;4980002;28;20053;-83
2023/05/10 03:43:02;;;;;;;13.02;10.90;;;;;;;12.10;100.00;100708.22;5003318;28;20054;-83
2023/05/10 03:45:30;;;;;;;14.60;11.60;;;;;;;12.11;100.00;100709.09;5016933;28;20053;-83
2023/05/10 03:47:59;;;;;;;12.95;10.88;;;;;;;12.09;100.00;100701.16;4962044;28;20038;-82
2023/05/10 03:50:27;;;;;;;13.23;11.38;;;;;;;12.09;100.00;100712.59;4975579;28;20398;-83
2023/05/10 03:52:54;;;;;;;15.95;11.40;;;;;;;12.07;100.00;100711.72;5004628;28;20052;-81
2023/05/10 03:55:22;;;;;;;18.15;12.52;;;;;;;12.07;100.00;100709.09;4995899;28;20057;-83
2023/05/10 03:57:50;;;;;;;14.90;11.50;;;;;;;12.06;100.00;100707.34;4963053;28;20058;-82
2023/05/10 04:00:18;;;;;;;19.30;12.35;;;;;;;12.06;100.00;100707.34;4992211;28;20061;-83
2023/05/10 04:02:49;;;;;;;16.63;12.50;;;;;;;12.07;100.00;100705.56;4949351;28;20046;-82
2023/05/10 04:05:19;;;;;;;18.50;13.13;;;;;;;12.06;100.00;100704.72;4996892;28;20061;-83
2023/05/10 04:07:49;;;;;;;15.75;12.32;;;;;;;12.07;100.00;100697.66;4991342;28;20064;-82
2023/05/10 04:10:16;;;;;;;15.38;12.25;;;;;;;12.05;100.00;100699.44;4959475;28;20426;-83
2023/05/10 04:12:44;;;;;;;13.25;11.70;;;;;;;12.03;100.00;100698.56;4997607;28;20041;-82
2023/05/10 04:15:12;;;;;;;14.75;11.70;;;;;;;12.04;100.00;100702.94;4982708;28;20049;-82
2023/05/10 04:17:39;;;;;;;21.05;13.27;;;;;;;12.04;100.00;100697.66;5022722;28;20060;-82
2023/05/10 04:20:08;;;;;;;20.42;13.82;;;;;;;12.06;100.00;100701.16;4972662;28;20045;-82
2023/05/10 04:22:35;;;;;;;19.60;12.75;;;;;;;12.04;100.00;100695.00;5010044;28;20056;-82
2023/05/10 04:25:04;;;;;;;19.27;12.95;;;;;;;11.99;100.00;100694.19;4971082;28;20045;-83
2023/05/10 04:27:31;;;;;;;16.15;12.45;;;;;;;11.94;100.00;100701.25;4995818;28;20441;-82
2023/05/10 04:29:59;;;;;;;15.65;12.27;;;;;;;11.90;100.00;100703.00;5008967;28;20734;-82
2023/05/10 04:32:26;;;;;;;15.57;12.27;;;;;;;11.86;100.00;100704.75;5003765;28;20052;-82
2023/05/10 04:34:53;;;;;;;20.65;13.27;;;;;;;11.85;100.00;100715.31;4974558;28;20049;-81
2023/05/10 04:37:22;;;;;;;17.45;12.98;;;;;;;11.86;100.00;100703.88;4989875;28;20092;-81
2023/05/10 04:39:50;;;;;;;20.08;12.73;;;;;;;11.85;100.00;100707.41;4987083;28;20414;-81
2023/05/10 04:42:17;;;;;;;21.02;14.23;;;;;;;11.84;100.00;100706.53;4997172;28;20049;-82
2023/05/10 04:44:44;;;;;;;18.20;12.25;;;;;;;11.85;100.00;100713.59;4995160;28;20057;-81
2023/05/10 04:47:13;;;;;;;16.65;12.77;;;;;;;11.86;100.00;100711.81;4995860;28;20045;-82
2023/05/10 04:49:40;;;;;;;24.55;14.13;;;;;;;11.88;100.00;100721.47;4987954;28;20068;-81
2023/05/10 04:52:08;;;;;;;18.63;13.05;;;;;;;11.88;100.00;100713.53;4964251;28;20053;-83
2023/05/10 04:54:36;;;;;;;18.20;12.90;;;;;;;11.88;100.00;100717.97;5014607;28;20057;-83
2023/05/10 04:57:04;;;;;;;22.05;13.00;;;;;;;11.86;100.00;100722.38;4974209;28;20817;-83
2023/05/10 04:59:35;;;;;;;21.27;13.82;;;;;;;11.86;100.00;100725.00;4983470;28;20049;-83
2023/05/10 05:02:04;;;;;;;;;;;;;;;11.87;100.00;100725.00;4995005;28;20053;-82
2023/05/10 05:04:31;;;;;;;23.95;13.82;;;;;;;11.89;100.00;100725.00;5006952;28;19936;-82
2023/05/10 05:06:59;;;;;;;24.17;13.70;;;;;;;11.88;100.00;100724.09;4967756;28;20050;-83
2023/05/10 05:09:26;;;;;;;16.25;11.55;;;;;;;11.89;100.00;100727.66;5009620;28;20510;-83
2023/05/10 05:11:55;;;;;;;26.55;13.85;;;;;;;11.89;100.00;100731.19;4978492;28;20064;-85
2023/05/10 05:14:24;;;;;;;21.25;13.23;;;;;;;11.88;100.00;100732.03;5016404;28;20046;-85
2023/05/10 05:16:52;;;;;;;18.25;12.40;;;;;;;11.88;100.00;100739.94;4993404;28;20053;-82
2023/05/10 05:19:19;;;;;;;14.05;11.40;;;;;;;11.88;100.00;100739.09;4993049;28;20064;-83
2023/05/10 05:21:47;;;;;;;18.60;12.27;;;;;;;11.90;100.00;100737.34;4946540;28;20062;-84
2023/05/10 05:24:14;;;;;;;21.23;12.10;;;;;;;11.92;100.00;100734.69;5004490;28;20067;-81
2023/05/10 05:26:41;;;;;;;15.88;11.35;;;;;;;11.91;100.00;100733.84;4988630;28;20053;-82
2023/05/10 05:29:09;;;;;;;12.45;9.63;;;;;;;11.90;100.00;100737.34;5016446;28;20415;-83
2023/05/10 05:31:36;;;;;;;16.58;10.88;;;;;;;11.90;100.00;100740.84;4987273;28;20050;-84
2023/05/10 05:34:04;;;;;;;11.73;9.40;;;;;;;11.90;100.00;100739.97;4979203;28;20045;-82
2023/05/10 05:36:32;;;;;;;12.05;10.38;;;;;;;11.91;100.00;100747.03;4991608;28;20053;-82
2023/05/10 05:39:02;;;;;;;13.18;10.75;;;;;;;11.90;100.00;100747.91;4966639;28;20050;-80
2023/05/10 05:41:30;;;;;;;11.32;9.68;;;;;;;11.87;100.00;100743.50;5008920;28;20054;-80
2023/05/10 05:43:57;;;;;;;11.77;10.38;;;;;;;11.86;100.00;100751.41;4993668;28;20432;-81
2023/05/10 05:46:25;;;;;;;13.93;9.32;;;;;;;11.84;100.00;100754.06;4965888;28;20064;-81
2023/05/10 05:48:52;;;;;;;12.40;10.10;;;;;;;11.86;100.00;100747.00;4992275;28;20058;-80
2023/05/10 05:51:20;;;;;;;11.00;9.43;;;;;;;11.88;100.00;100749.66;5003973;28;20042;-81
2023/05/10 05:53:47;;;;;;;11.70;8.98;;;;;;;11.89;100.00;100746.13;4944030;28;20038;-83
2023/05/10 05:56:14;;;;;;;14.98;9.75;;;;;;;11.93;100.00;100752.28;5001627;28;20057;-83
2023/05/10 05:58:42;;;;;;;9.45;8.40;;;;;;;11.92;100.00;100748.78;4988462;28;20065;-84
2023/05/10 06:01:09;;;;;;;10.85;8.45;;;;;;;11.92;100.00;100751.41;5029919;28;20057;-81
2023/05/10 06:03:36;;;;;;;9.95;8.13;;;;;;;11.89;100.00;100764.63;5015469;28;20042;-82
2023/05/10 06:06:04;;;;;;;10.07;7.55;;;;;;;11.88;100.00;100765.47;4972059;28;20057;-83
2023/05/10 06:08:31;;;;;;;9.38;8.05;;;;;;;11.90;100.00;100766.38;4988685;28;20510;-82
2023/05/10 06:11:00;;;;;;;10.10;7.97;;;;;;;11.91;100.00;100776.09;4971673;28;20060;-83
2023/05/10 06:13:31;;;;;;;9.95;7.60;;;;;;;11.93;100.00;100776.94;4989989;28;20045;-83
2023/05/10 06:15:59;;;;;;;10.15;7.18;;;;;;;11.94;100.00;100776.06;5010097;28;20073;-83
2023/05/10 06:18:27;;;;;;;8.88;7.07;;;;;;;11.96;100.00;100769.00;4996933;28;20054;-82
2023/05/10 06:20:54;;;;;;;7.25;6.38;;;;;;;11.96;100.00;100774.28;4989988;28;20038;-81
2023/05/10 06:23:22;;;;;;;8.15;6.65;;;;;;;11.97;100.00;100769.91;4992569;28;20050;-82
2023/05/10 06:25:49;;;;;;;8.95;5.95;;;;;;;11.97;100.00;100775.19;4996239;28;20053;-83
2023/05/10 06:28:16;;;;;;;6.03;5.43;;;;;;;11.98;100.00;100772.50;5010196;28;20581;-83
2023/05/10 06:30:45;;;;;;;5.95;5.45;;;;;;;11.99;100.00;100784.84;4998467;28;20057;-84
2023/05/10 06:33:12;;;;;;;4.93;4.53;;;;;;;12.02;100.00;100783.94;5004816;28;20047;-84
2023/05/10 06:35:40;;;;;;;5.07;4.40;;;;;;;12.04;100.00;100790.09;4997793;28;20054;-84
2023/05/10 06:38:07;;;;;;;4.38;3.97;;;;;;;12.03;100.00;100791.88;4991324;28;20068;-84
2023/05/10 06:40:35;;;;;;;3.53;3.33;;;;;;;12.03;100.00;100781.31;5000038;28;20026;-84
2023/05/10 06:43:03;;;;;;;3.60;3.30;;;;;;;12.05;100.00;100791.88;4986305;28;20069;-84
2023/05/10 06:45:30;;;;;;;2.58;2.38;;;;;;;12.07;100.00;100798.88;5030150;28;20053;-83
2023/05/10 06:47:57;;;;;;;6.45;1.92;;;;;;;12.11;100.00;100804.16;4986806;28;20084;-83
2023/05/10 06:50:25;;;;;;;1.50;1.38;;;;;;;12.11;100.00;100804.16;4991227;28;20049;-83
2023/05/10 06:52:52;;;;;;;0.70;0.70;;;;;;;12.11;100.00;100801.53;5000205;28;20141;-83
2023/05/10 06:55:20;;;;;;;0.60;0.60;;;;;;;12.08;100.00;100805.94;4999595;28;20057;-83
2023/05/10 06:57:47;;;;;;;0.43;0.43;;;;;;;12.04;100.00;100804.19;4974361;28;20045;-83
2023/05/10 07:00:15;;;;;;;1.75;0.65;;;;;;;12.04;100.00;100809.47;4973817;28;20069;-83
2023/05/10 07:02:43;;;;;;;0.73;0.73;;;;;;;12.05;100.00;100816.50;5010400;28;20057;-82
2023/05/10 07:05:12;;;;;;;1.10;1.02;;;;;;;12.04;100.00;100819.16;4975470;28;20407;-82
2023/05/10 07:07:39;;;;;;;2.90;1.30;;;;;;;12.04;100.00;100821.78;5007889;28;20068;-82
2023/05/10 07:10:08;;;;;;;1.70;1.60;;;;;;;12.04;100.00;100824.44;5000846;28;20070;-83
2023/05/10 07:12:35;;;;;;;1.45;1.35;;;;;;;12.03;100.00;100822.69;4948467;28;20061;-81
2023/05/10 07:15:04;;;;;;;2.00;1.90;;;;;;;12.03;100.00;100834.13;4994632;28;20076;-82
2023/05/10 07:17:33;;;;;;;2.08;1.90;;;;;;;12.01;100.00;100825.31;5003429;28;20045;-82
2023/05/10 07:20:04;;;;;;;3.00;2.33;;;;;;;12.01;100.00;100825.31;5016804;28;20053;-82
2023/05/10 07:22:31;;;;;;;3.08;2.58;;;;;;;12.04;100.00;100827.06;5000160;28;20049;-81
2023/05/10 07:24:59;;;;;;;6.75;2.92;;;;;;;12.03;100.00;100834.13;5020450;28;20045;-85
2023/05/10 07:27:26;;;;;;;3.30;2.50;;;;;;;11.99;100.00;100836.78;4977782;28;20065;-82
2023/05/10 07:29:54;;;;;;;3.17;2.60;;;;;;;11.98;100.00;100830.59;4989645;28;20053;-83
2023/05/10 07:32:22;;;;;;;5.35;3.72;;;;;;;11.96;100.00;100842.94;4991875;28;20057;-83
2023/05/10 07:34:49;;;;;;;3.80;3.50;;;;;;;11.93;100.00;100842.97;5003179;28;20069;-83
2023/05/10 07:37:16;;;;;;;4.80;3.92;;;;;;;11.90;100.00;100851.75;5012644;28;20053;-83
2023/05/10 07:39:44;;;;;;;5.38;4.93;;;;;;;11.88;100.00;100857.91;5019183;28;20529;-83
2023/05/10 07:42:11;;;;;;;4.57;4.05;;;;;;;11.86;100.00;100862.31;4984642;28;20495;-84
2023/05/10 07:44:38;;;;;;;5.40;4.65;;;;;;;11.86;100.00;100857.03;5001692;28;20045;-82
2023/05/10 07:47:08;;;;;;;4.35;4.05;;;;;;;11.85;100.00;100856.16;5040917;28;20045;-83
2023/05/10 07:49:36;;;;;;;4.85;4.45;;;;;;;11.87;100.00;100864.94;5006141;28;20056;-83
2023/05/10 07:52:03;;;;;;;5.40;4.90;;;;;;;11.86;100.00;100859.66;5017950;28;20053;-83
2023/05/10 07:54:31;;;;;;;5.30;4.88;;;;;;;11.85;100.00;100869.34;4997703;28;20058;-83
2023/05/10 07:56:59;;;;;;;5.38;4.82;;;;;;;11.85;100.00;100876.38;5020091;28;20049;-83
2023/05/10 07:59:27;;;;;;;7.15;6.63;;;;;;;11.86;100.00;100883.44;4998677;28;20060;-83
2023/05/10 08:01:54;;;;;;;8.35;7.60;;;;;;;11.84;100.00;100882.56;5004416;28;20059;-83
2023/05/10 08:04:22;;;;;;;9.95;8.30;;;;;;;11.84;100.00;100894.00;5004281;28;20046;-82
2023/05/10 08:06:49;;;;;;;11.00;10.00;;;;;;;11.85;100.00;100894.84;4988355;28;20054;-83
2023/05/10 08:09:17;;;;;;;16.48;11.95;;;;;;;11.87;100.00;100896.63;5007189;28;20049;-82
2023/05/10 08:11:44;;;;;;;14.85;12.73;;;;;;;11.92;100.00;100890.50;4993403;28;20621;-83
2023/05/10 08:14:12;;;;;;;14.73;12.88;;;;;;;11.93;100.00;100895.78;4989588;28;20037;-83
2023/05/10 08:16:39;;;;;;;20.35;14.45;;;;;;;11.93;100.00;100893.13;4997326;28;20397;-82
2023/05/10 08:19:07;;;;;;;16.90;15.10;;;;;;;11.90;100.00;100896.66;5001938;28;20057;-84
2023/05/10 08:21:35;;;;;;;16.05;14.27;;;;;;;11.91;100.00;100897.56;5006256;28;20058;-83
2023/05/10 08:24:03;;;;;;;14.07;12.57;;;;;;;11.93;100.00;100903.72;5017828;28;20047;-83
2023/05/10 08:26:30;;;;;;;15.73;13.48;;;;;;;11.91;100.00;100908.13;5001788;28;20061;-84
2023/05/10 08:28:58;;;;;;;14.20;12.40;;;;;;;11.93;100.00;100906.34;4998269;28;20066;-83
2023/05/10 08:31:25;;;;;;;11.57;10.38;;;;;;;11.96;100.00;100906.31;4961605;28;20058;-82
2023/05/10 08:33:53;;;;;;;12.63;11.32;;;;;;;11.99;100.00;100910.75;4973089;28;20411;-83
2023/05/10 08:36:21;;;;;;;12.23;10.60;;;;;;;12.00;100.00;100913.38;5002660;28;20058;-84
2023/05/10 08:38:51;;;;;;;11.85;10.52;;;;;;;12.01;100.00;100920.41;5017828;28;20033;-83
2023/05/10 08:41:21;;;;;;;11.57;10.45;;;;;;;12.00;100.00;100917.75;5016741;28;20435;-83
2023/05/10 08:43:49;;;;;;;11.57;9.52;;;;;;;11.98;100.00;100919.53;5013578;28;20054;-82
2023/05/10 08:46:18;;;;;;;8.40;7.65;;;;;;;11.99;100.00;100932.75;4984788;28;20530;-83
2023/05/10 08:48:47;;;;;;;8.35;7.55;;;;;;;12.01;100.00;100943.31;5017211;28;20057;-83
2023/05/10 08:51:19;;;;;;;5.82;5.32;;;;;;;11.99;100.00;100939.78;5017612;28;20068;-83
2023/05/10 08:53:46;;;;;;;5.28;4.78;;;;;;;12.00;100.00;100938.88;5005160;28;20057;-83
2023/05/10 08:56:17;;;;;;;4.97;4.47;;;;;;;12.00;100.00;100941.53;5003957;28;20060;-83
2023/05/10 08:58:45;;;;;;;5.53;5.03;;;;;;;12.01;100.00;100945.94;4998396;28;20046;-83
2023/05/10 09:01:14;;;;;;;6.50;5.90;;;;;;;12.04;100.00;100941.53;4972988;28;20050;-83
2023/05/10 09:03:42;;;;;;;7.15;6.53;;;;;;;12.05;100.00;100952.97;4985467;28;20061;-83
2023/05/10 09:06:12;;;;;;;8.23;7.43;;;;;;;12.04;100.00;100954.75;5017190;28;20046;-83
2023/05/10 09:08:44;;;;;;;7.88;7.07;;;;;;;12.03;100.00;100965.31;5003212;28;20645;-83
2023/05/10 09:11:14;;;;;;;7.70;6.82;;;;;;;12.06;100.00;100960.91;5005557;28;20057;-83
2023/05/10 09:13:42;;;;;;;6.40;5.78;;;;;;;12.12;100.00;100967.94;5000995;28;20126;-83
2023/05/10 09:16:09;;;;;;;5.53;5.03;;;;;;;12.14;100.00;100974.09;4974052;28;20042;-82
2023/05/10 09:18:49;;;;;;;7.13;5.88;;;;;;;12.14;100.00;100973.22;4999930;28;20061;-83
2023/05/10 09:21:16;;;;;;;5.80;5.30;;;;;;;12.17;100.00;100968.78;5007882;28;20050;-82
2023/05/10 09:23:49;;;;;;;4.35;3.95;;;;;;;12.25;100.00;100968.81;4984399;28;20037;-82
2023/05/10 09:26:22;;;;;;;4.97;4.57;;;;;;;12.31;100.00;100974.06;5015964;28;20499;-82
2023/05/10 09:28:55;;;;;;;4.05;3.80;;;;;;;12.39;100.00;100982.00;5018529;28;20050;-81
2023/05/10 09:31:24;;;;;;;3.90;3.60;;;;;;;12.42;100.00;100982.88;5013152;28;20042;-82
2023/05/10 09:33:53;;;;;;;4.25;3.60;;;;;;;12.45;100.00;100982.84;4951131;28;20065;-82
2023/05/10 09:36:20;;;;;;;3.78;3.47;;;;;;;12.50;100.00;100987.25;5009810;28;20062;-83
2023/05/10 09:38:51;;;;;;;3.30;3.10;;;;;;;12.54;100.00;100994.28;4982552;28;20058;-83
2023/05/10 09:41:21;;;;;;;3.60;3.30;;;;;;;12.55;100.00;100998.69;4996517;28;20541;-82
2023/05/10 09:43:49;;;;;;;4.15;3.75;;;;;;;12.56;100.00;101003.09;5012497;28;20065;-84
2023/05/10 09:46:17;;;;;;;3.63;3.35;;;;;;;12.55;100.00;101006.59;4997948;28;20043;-83
2023/05/10 09:48:47;;;;;;;3.20;3.00;;;;;;;12.56;100.00;101008.38;4937602;28;20440;-82
2023/05/10 09:51:24;;;;;;;4.73;3.40;;;;;;;12.58;100.00;101009.25;5032207;28;20438;-82
2023/05/10 09:54:11;;;;;;;3.22;2.92;;;;;;;12.62;100.00;101011.00;4997393;28;20046;-82
2023/05/10 09:56:42;;;;;;;3.30;3.10;;;;;;;12.62;100.00;101013.66;5010580;28;20060;-83
2023/05/10 09:59:11;;;;;;;;;;;;;;;12.62;100.00;101018.94;4975164;28;20042;-82
2023/05/10 10:01:40;;;;;;;3.28;3.08;;;;;;;12.63;100.00;101018.06;5029933;28;19921;-81
2023/05/10 10:04:09;;;;;;;3.65;3.35;;;;;;;12.62;100.00;101011.88;4959867;28;20419;-82
2023/05/10 10:06:41;;;;;;;5.07;4.40;;;;;;;12.61;100.00;101014.53;4995370;28;20057;-82
2023/05/10 10:09:09;;;;;;;4.40;4.10;;;;;;;12.58;100.00;101014.53;4999295;28;20065;-82
2023/05/10 10:11:38;;;;;;;4.75;4.30;;;;;;;12.59;100.00;101019.84;5014398;28;20054;-83
2023/05/10 10:14:05;;;;;;;3.95;3.55;;;;;;;12.59;100.00;101030.41;4997853;28;20058;-81
2023/05/10 10:16:33;;;;;;;4.07;3.70;;;;;;;12.62;100.00;101029.50;5018309;28;20046;-83
2023/05/10 10:19:01;;;;;;;3.28;3.05;;;;;;;12.66;100.00;101040.09;4980238;28;20050;-81
2023/05/10 10:21:29;;;;;;;4.00;3.40;;;;;;;12.73;100.00;101042.72;5016268;28;20061;-82
2023/05/10 10:23:57;;;;;;;3.50;3.20;;;;;;;12.75;100.00;101041.81;5002456;28;20052;-82
2023/05/10 10:26:27;;;;;;;3.72;3.35;;;;;;;12.83;100.00;101037.38;5029720;28;20499;-82
2023/05/10 10:29:20;;;;;;;4.00;3.30;;;;;;;12.90;100.00;101045.31;4996507;28;20043;-82
2023/05/10 10:32:04;;;;;;;3.40;3.17;;;;;;;12.96;100.00;101035.56;4995955;28;20068;-82
2023/05/10 10:34:32;;;;;;;3.92;3.53;;;;;;;12.97;100.00;101049.69;4965396;28;21873;-82
2023/05/10 10:37:04;;;;;;;3.50;3.20;;;;;;;12.96;100.00;101056.72;5006807;28;20046;-82
2023/05/10 10:39:36;;;;;;;3.70;3.35;;;;;;;12.97;100.00;101049.69;5014487;28;20050;-82
2023/05/10 10:42:04;;;;;;;5.03;3.97;;;;;;;13.02;100.00;101059.38;4994152;28;20053;-81
2023/05/10 10:44:34;;;;;;;5.93;4.88;;;;;;;13.10;100.00;101053.16;5008858;28;20053;-82
2023/05/10 10:50:07;;;;;;;6.50;4.30;;;;;;;13.12;100.00;101054.94;4979007;28;20065;-83
2023/05/10 10:52:45;;;;;;;3.83;3.53;;;;;;;13.12;100.00;101060.22;5011666;28;20049;-83
2023/05/10 10:55:24;;;;;;;3.67;3.38;;;;;;;13.06;100.00;101069.06;5005046;28;20050;-82
2023/05/10 10:57:59;;;;;;;3.10;2.90;;;;;;;13.09;100.00;101064.63;4997144;28;20076;-82
2023/05/10 11:00:32;;;;;;;3.78;2.90;;;;;;;13.11;100.00;101062.88;5008579;28;20050;-82
2023/05/10 11:03:14;;;;;;;3.40;2.88;;;;;;;13.16;100.00;101059.31;5011070;28;20046;-83
2023/05/10 11:05:46;;;;;;;2.88;2.67;;;;;;;13.19;100.00;101064.56;4975009;28;20054;-82
2023/05/10 11:08:28;;;;;;;3.50;3.20;;;;;;;13.21;100.00;101065.47;5010342;28;20052;-82
2023/05/10 11:10:58;;;;;;;3.38;3.10;;;;;;;13.24;100.00;101069.88;4982244;28;20090;-83
2023/05/10 11:13:29;;;;;;;7.93;3.33;;;;;;;13.31;100.00;101074.28;4985950;28;20046;-83
2023/05/10 11:15:58;;;;;;;3.05;2.75;;;;;;;13.42;100.00;101069.81;5001401;28;20046;-83
2023/05/10 11:18:30;;;;;;;3.03;2.80;;;;;;;13.53;100.00;101077.69;5026388;28;20058;-83
2023/05/10 11:21:03;;;;;;;2.72;2.55;;;;;;;13.62;100.00;101079.41;4959869;28;21442;-82
2023/05/10 11:23:32;;;;;;;2.17;2.08;;;;;;;13.67;100.00;101076.72;4998550;28;20054;-82
2023/05/10 11:26:01;;;;;;;2.15;2.05;;;;;;;13.73;100.00;101080.22;5002617;28;22892;-82